createdAt,value
2022-08-27T00:02:22.334Z,5.80
2022-08-27T00:04:51.557Z,6.30
2022-08-27T00:07:19.907Z,6.37
2022-08-27T00:12:33.550Z,6.07
2022-08-27T00:15:07.811Z,6.10
2022-08-27T00:17:40.319Z,6.07
2022-08-27T00:20:17.407Z,6.30
2022-08-27T00:22:46.145Z,6.27
2022-08-27T00:25:18.604Z,6.13
2022-08-27T00:27:48.469Z,6.57
2022-08-27T00:30:19.503Z,6.37
2022-08-27T00:32:48.856Z,6.60
2022-08-27T00:35:20.685Z,6.23
2022-08-27T00:37:52.095Z,6.70
2022-08-27T00:40:24.933Z,6.77
2022-08-27T00:42:57.214Z,6.53
2022-08-27T00:45:27.166Z,6.50
2022-08-27T00:47:58.292Z,6.63
2022-08-27T00:50:51.227Z,6.77
2022-08-27T00:53:23.608Z,6.43
2022-08-27T00:56:22.032Z,6.67
2022-08-27T00:59:00.292Z,6.97
2022-08-27T01:01:32.401Z,6.83
2022-08-27T01:04:06.104Z,7.10
2022-08-27T01:06:37.538Z,6.40
2022-08-27T01:09:16.787Z,6.93
2022-08-27T01:11:53.343Z,6.67
2022-08-27T01:14:24.612Z,6.57
2022-08-27T01:16:57.616Z,6.77
2022-08-27T01:19:46.735Z,6.63
2022-08-27T01:23:04.374Z,6.73
2022-08-27T01:28:17.835Z,6.97
2022-08-27T01:30:54.081Z,7.27
2022-08-27T01:33:24.892Z,6.63
2022-08-27T01:35:55.663Z,6.67
2022-08-27T01:41:10.007Z,6.73
2022-08-27T01:46:28.710Z,6.80
2022-08-27T01:48:59.705Z,6.73
2022-08-27T01:51:30.921Z,6.97
2022-08-27T01:54:00.124Z,6.70
2022-08-27T01:56:32.540Z,6.80
2022-08-27T02:04:32.477Z,7.00
2022-08-27T02:09:48.139Z,6.53
2022-08-27T02:12:22.167Z,6.70
2022-08-27T02:14:53.209Z,6.77
2022-08-27T02:17:25.312Z,6.70
2022-08-27T02:19:58.401Z,6.63
2022-08-27T02:22:30.808Z,7.03
2022-08-27T02:25:00.521Z,6.30
2022-08-27T02:27:28.865Z,6.37
2022-08-27T02:30:00.224Z,6.60
2022-08-27T02:32:32.135Z,6.50
2022-08-27T02:37:47.547Z,5.97
2022-08-27T02:40:21.827Z,6.10
2022-08-27T02:45:37.976Z,6.30
2022-08-27T02:48:09.969Z,7.10
2022-08-27T02:50:41.957Z,6.50
2022-08-27T02:53:13.242Z,6.33
2022-08-27T02:55:44.291Z,6.20
2022-08-27T02:58:16.880Z,6.27
2022-08-27T03:00:49.765Z,6.50
2022-08-27T03:03:23.476Z,6.73
2022-08-27T03:05:54.234Z,6.73
2022-08-27T03:08:30.381Z,6.60
2022-08-27T03:11:22.387Z,6.10
2022-08-27T03:16:35.793Z,6.50
2022-08-27T03:19:07.625Z,6.57
2022-08-27T03:21:44.660Z,6.47
2022-08-27T03:24:33.126Z,6.43
2022-08-27T03:27:06.845Z,6.10
2022-08-27T03:29:43.633Z,6.63
2022-08-27T03:32:15.300Z,6.70
2022-08-27T03:34:48.166Z,6.73
2022-08-27T03:42:44.703Z,6.57
2022-08-27T03:45:19.294Z,6.60
2022-08-27T03:47:48.274Z,6.17
2022-08-27T03:50:19.400Z,6.87
2022-08-27T03:55:33.850Z,7.00
2022-08-27T04:00:46.286Z,6.73
2022-08-27T04:03:19.074Z,6.80
2022-08-27T04:05:55.975Z,6.80
2022-08-27T04:08:26.763Z,7.00
2022-08-27T04:11:04.482Z,6.50
2022-08-27T04:13:33.795Z,6.80
2022-08-27T04:16:05.790Z,6.70
2022-08-27T04:18:35.260Z,6.60
2022-08-27T04:21:12.109Z,6.70
2022-08-27T04:23:44.366Z,7.17
2022-08-27T04:26:16.128Z,7.07
2022-08-27T04:28:48.968Z,6.90
2022-08-27T04:31:18.654Z,6.77
2022-08-27T04:33:51.305Z,7.53
2022-08-27T04:36:21.074Z,6.77
2022-08-27T04:38:48.939Z,7.07
2022-08-27T04:41:27.562Z,6.67
2022-08-27T04:43:57.527Z,7.13
2022-08-27T04:46:31.751Z,6.67
2022-08-27T04:49:10.345Z,6.70
2022-08-27T04:51:43.393Z,6.70
2022-08-27T04:54:12.655Z,6.63
2022-08-27T04:56:43.726Z,7.07
2022-08-27T05:01:56.002Z,7.03
2022-08-27T05:04:26.297Z,6.97
2022-08-27T05:06:57.797Z,6.70
2022-08-27T05:09:28.931Z,6.73
2022-08-27T05:11:58.555Z,6.87
2022-08-27T05:14:32.905Z,6.93
2022-08-27T05:17:06.722Z,7.03
2022-08-27T05:19:36.414Z,6.83
2022-08-27T05:22:07.356Z,7.20
2022-08-27T05:24:36.257Z,6.83
2022-08-27T05:27:06.458Z,6.83
2022-08-27T05:29:37.857Z,6.80
2022-08-27T05:32:06.315Z,6.57
2022-08-27T05:34:36.209Z,6.73
2022-08-27T05:37:07.724Z,6.77
2022-08-27T05:39:36.619Z,6.53
2022-08-27T05:42:07.725Z,6.37
2022-08-27T05:44:42.089Z,6.20
2022-08-27T05:47:14.480Z,6.37
2022-08-27T05:49:42.896Z,6.47
2022-08-27T05:54:56.246Z,6.30
2022-08-27T05:57:27.270Z,6.40
2022-08-27T06:00:18.100Z,5.67
2022-08-27T06:02:46.827Z,5.77
2022-08-27T06:05:19.743Z,5.70
2022-08-27T06:07:50.375Z,5.83
2022-08-27T06:10:19.961Z,5.90
2022-08-27T06:12:56.293Z,6.00
2022-08-27T06:15:25.847Z,6.30
2022-08-27T06:17:56.602Z,5.87
2022-08-27T06:20:27.720Z,6.00
2022-08-27T06:22:56.447Z,5.70
2022-08-27T06:25:27.130Z,5.50
2022-08-27T06:27:57.276Z,5.40
2022-08-27T06:30:34.524Z,5.40
2022-08-27T06:33:02.948Z,5.40
2022-08-27T06:35:33.957Z,5.20
2022-08-27T06:38:05.172Z,5.23
2022-08-27T06:40:33.291Z,5.20
2022-08-27T06:43:04.592Z,5.20
2022-08-27T06:45:35.869Z,5.60
2022-08-27T06:48:04.987Z,5.87
2022-08-27T06:50:48.177Z,5.27
2022-08-27T06:53:24.349Z,5.03
2022-08-27T06:55:54.556Z,5.37
2022-08-27T06:58:23.237Z,5.50
2022-08-27T07:00:51.608Z,5.27
2022-08-27T07:03:19.101Z,5.30
2022-08-27T07:05:50.344Z,5.00
2022-08-27T07:08:20.591Z,5.30
2022-08-27T07:10:51.003Z,5.17
2022-08-27T07:13:20.545Z,5.10
2022-08-27T07:15:49.307Z,5.00
2022-08-27T07:18:27.187Z,4.67
2022-08-27T07:20:56.631Z,5.07
2022-08-27T07:23:27.178Z,5.30
2022-08-27T07:25:59.212Z,5.10
2022-08-27T07:28:30.745Z,5.00
2022-08-27T07:31:00.819Z,5.20
2022-08-27T07:33:36.414Z,5.20
2022-08-27T07:36:07.927Z,4.93
2022-08-27T07:38:37.520Z,5.00
2022-08-27T07:41:07.387Z,5.10
2022-08-27T07:43:57.529Z,4.70
2022-08-27T07:49:11.373Z,5.17
2022-08-27T07:51:42.395Z,5.70
2022-08-27T07:54:18.509Z,5.30
2022-08-27T07:56:55.168Z,5.30
2022-08-27T07:59:27.338Z,5.37
2022-08-27T08:02:04.604Z,5.33
2022-08-27T08:04:36.484Z,5.43
2022-08-27T08:07:06.935Z,5.70
2022-08-27T08:12:20.515Z,5.90
2022-08-27T08:15:00.222Z,6.03
2022-08-27T08:17:28.908Z,5.83
2022-08-27T08:20:20.025Z,5.40
2022-08-27T08:22:50.555Z,5.17
2022-08-27T08:25:22.759Z,5.93
2022-08-27T08:27:52.488Z,5.53
2022-08-27T08:30:21.045Z,5.90
2022-08-27T08:32:50.893Z,5.87
2022-08-27T08:35:22.005Z,5.57
2022-08-27T08:37:51.834Z,5.43
2022-08-27T08:40:43.377Z,6.13
2022-08-27T08:43:49.936Z,5.40
2022-08-27T08:46:29.489Z,5.60
2022-08-27T08:49:04.823Z,5.00
2022-08-27T08:51:43.396Z,5.60
2022-08-27T08:54:25.864Z,5.80
2022-08-27T08:57:03.461Z,5.90
2022-08-27T08:59:46.071Z,5.60
2022-08-27T09:02:25.687Z,5.57
2022-08-27T09:05:07.116Z,5.77
2022-08-27T09:08:09.945Z,5.97
2022-08-27T09:10:58.157Z,5.37
2022-08-27T09:14:12.815Z,5.80
2022-08-27T09:16:43.772Z,5.60
2022-08-27T09:22:06.184Z,6.00
2022-08-27T09:24:53.880Z,5.80
2022-08-27T09:27:27.462Z,7.87
2022-08-27T09:29:57.482Z,8.00
2022-08-27T09:32:29.043Z,6.93
2022-08-27T09:35:14.794Z,6.70
2022-08-27T09:37:51.711Z,6.30
2022-08-27T09:40:53.872Z,5.93
2022-08-27T09:43:27.073Z,6.10
2022-08-27T09:46:01.748Z,6.07
2022-08-27T09:48:35.872Z,6.80
2022-08-27T09:51:22.787Z,6.87
2022-08-27T09:54:14.397Z,6.63
2022-08-27T09:56:54.524Z,6.20
2022-08-27T09:59:35.446Z,6.47
2022-08-27T10:02:27.099Z,6.63
2022-08-27T10:05:01.758Z,6.23
2022-08-27T10:07:53.860Z,6.50
2022-08-27T10:10:46.976Z,6.57
2022-08-27T10:13:20.991Z,6.50
2022-08-27T10:16:26.462Z,6.50
2022-08-27T10:19:28.547Z,6.20
2022-08-27T10:22:07.373Z,6.50
2022-08-27T10:25:02.167Z,6.53
2022-08-27T10:28:10.420Z,6.70
2022-08-27T10:31:19.945Z,6.50
2022-08-27T10:34:21.145Z,6.77
2022-08-27T10:37:20.829Z,6.90
2022-08-27T10:40:11.646Z,6.80
2022-08-27T10:43:16.492Z,6.43
2022-08-27T10:46:26.288Z,6.00
2022-08-27T10:49:22.162Z,6.20
2022-08-27T10:52:25.754Z,6.17
2022-08-27T10:55:15.028Z,6.43
2022-08-27T10:58:21.081Z,6.27
2022-08-27T11:01:34.944Z,6.03
2022-08-27T11:04:25.768Z,5.80
2022-08-27T11:07:14.147Z,6.07
2022-08-27T11:09:50.788Z,6.10
2022-08-27T11:12:48.011Z,5.70
2022-08-27T11:15:26.832Z,5.77
2022-08-27T11:18:39.647Z,5.93
2022-08-27T11:21:19.679Z,5.33
2022-08-27T11:23:54.580Z,5.80
2022-08-27T11:26:23.252Z,5.77
2022-08-27T11:29:00.308Z,5.50
2022-08-27T11:31:35.758Z,5.47
2022-08-27T11:34:18.788Z,5.50
2022-08-27T11:37:38.783Z,5.40
2022-08-27T11:40:25.268Z,5.17
2022-08-27T11:42:57.993Z,5.47
2022-08-27T11:45:38.862Z,5.37
2022-08-27T11:48:26.535Z,5.77
2022-08-27T11:50:59.403Z,5.30
2022-08-27T11:53:33.025Z,5.33
2022-08-27T11:56:28.644Z,5.63
2022-08-27T11:59:10.625Z,5.40
2022-08-27T12:01:42.760Z,5.33
2022-08-27T12:04:24.433Z,5.30
2022-08-27T12:07:21.004Z,5.27
2022-08-27T12:10:00.374Z,5.77
2022-08-27T12:12:54.423Z,5.20
2022-08-27T12:15:49.862Z,5.53
2022-08-27T12:18:26.675Z,5.60
2022-08-27T12:21:20.093Z,5.50
2022-08-27T12:24:07.844Z,5.70
2022-08-27T12:26:43.928Z,5.37
2022-08-27T12:29:44.023Z,5.53
2022-08-27T12:32:40.036Z,5.60
2022-08-27T12:35:37.183Z,5.43
2022-08-27T12:38:18.886Z,5.37
2022-08-27T12:41:01.420Z,5.00
2022-08-27T12:43:33.942Z,5.50
2022-08-27T12:46:26.687Z,5.20
2022-08-27T12:49:35.906Z,5.60
2022-08-27T12:51:57.531Z,5.60
2022-08-27T12:55:01.250Z,5.23
2022-08-27T13:01:19.612Z,5.23
2022-08-27T13:03:52.986Z,5.47
2022-08-27T13:06:37.209Z,5.60
2022-08-27T13:09:10.990Z,5.50
2022-08-27T13:11:50.318Z,4.97
2022-08-27T13:14:21.555Z,5.30
2022-08-27T13:17:00.591Z,5.70
2022-08-27T13:19:32.170Z,5.50
2022-08-27T13:22:07.199Z,5.27
2022-08-27T13:24:48.543Z,5.47
2022-08-27T13:27:27.427Z,5.47
2022-08-27T13:30:05.931Z,5.73
2022-08-27T13:32:38.650Z,5.50
2022-08-27T13:35:10.697Z,5.57
2022-08-27T13:37:48.044Z,5.53
2022-08-27T13:40:39.561Z,5.60
2022-08-27T13:43:14.942Z,5.40
2022-08-27T13:45:49.133Z,5.67
2022-08-27T13:48:22.369Z,5.90
2022-08-27T13:50:57.548Z,5.77
2022-08-27T13:53:54.200Z,6.07
2022-08-27T13:56:35.702Z,5.50
2022-08-27T13:59:26.925Z,5.93
2022-08-27T14:02:17.326Z,5.77
2022-08-27T14:05:03.079Z,5.53
2022-08-27T14:07:39.534Z,5.77
2022-08-27T14:10:33.707Z,5.70
2022-08-27T14:13:16.655Z,5.73
2022-08-27T14:15:48.777Z,5.57
2022-08-27T14:18:57.797Z,5.63
2022-08-27T14:21:29.382Z,5.90
2022-08-27T14:23:59.939Z,5.73
2022-08-27T14:26:30.430Z,5.90
2022-08-27T14:29:01.749Z,5.60
2022-08-27T14:31:31.342Z,6.03
2022-08-27T14:33:58.990Z,5.87
2022-08-27T14:36:29.461Z,5.40
2022-08-27T14:38:58.611Z,6.30
2022-08-27T14:41:28.993Z,5.67
2022-08-27T14:43:59.479Z,5.47
2022-08-27T14:46:31.116Z,5.63
2022-08-27T14:49:00.936Z,5.50
2022-08-27T14:51:32.334Z,5.83
2022-08-27T14:56:49.128Z,5.60
2022-08-27T14:59:18.434Z,5.50
2022-08-27T15:01:49.572Z,5.50
2022-08-27T15:04:20.376Z,5.53
2022-08-27T15:06:49.035Z,5.13
2022-08-27T15:09:21.109Z,5.93
2022-08-27T15:11:50.569Z,5.77
2022-08-27T15:14:40.174Z,5.93
2022-08-27T15:17:20.016Z,5.80
2022-08-27T15:19:58.296Z,5.70
2022-08-27T15:22:34.115Z,6.10
2022-08-27T15:25:03.173Z,6.27
2022-08-27T15:27:38.287Z,5.70
2022-08-27T15:30:10.977Z,5.80
2022-08-27T15:32:50.850Z,5.70
2022-08-27T15:35:29.125Z,6.03
2022-08-27T15:37:58.512Z,5.70
2022-08-27T15:40:28.313Z,5.60
2022-08-27T15:43:05.846Z,5.77
2022-08-27T15:45:37.376Z,5.60
2022-08-27T15:48:11.251Z,5.37
2022-08-27T15:50:41.438Z,6.10
2022-08-27T15:53:15.560Z,5.97
2022-08-27T15:55:46.810Z,5.60
2022-08-27T15:58:18.262Z,5.90
2022-08-27T16:01:01.967Z,5.37
2022-08-27T16:03:35.600Z,5.97
2022-08-27T16:06:07.978Z,5.67
2022-08-27T16:08:36.787Z,5.93
2022-08-27T16:11:11.798Z,5.90
2022-08-27T16:13:43.773Z,5.83
2022-08-27T16:18:57.709Z,5.90
2022-08-27T16:24:11.279Z,6.30
2022-08-27T16:26:43.706Z,6.30
2022-08-27T16:29:14.387Z,6.37
2022-08-27T16:31:43.569Z,6.30
2022-08-27T16:34:32.327Z,6.30
2022-08-27T16:37:03.441Z,6.33
2022-08-27T16:39:34.592Z,6.37
2022-08-27T16:42:08.947Z,6.03
2022-08-27T16:44:38.665Z,5.90
2022-08-27T16:47:10.804Z,6.43
2022-08-27T16:50:00.373Z,6.20
2022-08-27T16:52:31.517Z,6.23
2022-08-27T16:55:00.493Z,5.97
2022-08-27T16:57:28.869Z,6.27
2022-08-27T16:59:57.159Z,6.33
2022-08-27T17:02:32.786Z,6.37
2022-08-27T17:05:23.854Z,6.50
2022-08-27T17:07:52.808Z,6.53
2022-08-27T17:10:22.307Z,6.47
2022-08-27T17:12:56.699Z,6.77
2022-08-27T17:15:34.592Z,6.30
2022-08-27T17:18:05.955Z,6.60
2022-08-27T17:20:42.964Z,6.60
2022-08-27T17:23:32.552Z,6.90
2022-08-27T17:26:00.417Z,6.30
2022-08-27T17:28:31.405Z,6.37
2022-08-27T17:31:09.504Z,6.63
2022-08-27T17:33:44.971Z,8.50
2022-08-27T17:39:03.811Z,7.50
2022-08-27T17:41:39.583Z,6.80
2022-08-27T17:44:32.980Z,6.17
2022-08-27T17:47:03.353Z,6.20
2022-08-27T17:52:20.878Z,6.33
2022-08-27T17:54:56.308Z,6.70
2022-08-27T17:57:40.406Z,6.60
2022-08-27T18:00:13.314Z,6.20
2022-08-27T18:02:51.857Z,6.63
2022-08-27T18:05:26.326Z,6.70
2022-08-27T18:08:00.710Z,6.37
2022-08-27T18:10:32.431Z,6.73
2022-08-27T18:13:05.448Z,6.47
2022-08-27T18:15:42.217Z,6.30
2022-08-27T18:18:15.548Z,6.20
2022-08-27T18:20:47.544Z,6.57
2022-08-27T18:23:20.401Z,6.97
2022-08-27T18:25:52.520Z,7.03
2022-08-27T18:28:22.522Z,6.73
2022-08-27T18:30:50.779Z,6.70
2022-08-27T18:33:20.450Z,7.10
2022-08-27T18:35:50.372Z,6.70
2022-08-27T18:38:20.808Z,6.83
2022-08-27T18:40:50.144Z,6.90
2022-08-27T18:43:23.377Z,6.60
2022-08-27T18:45:51.576Z,6.70
2022-08-27T18:48:23.732Z,6.77
2022-08-27T18:51:00.511Z,6.60
2022-08-27T18:53:33.837Z,6.37
2022-08-27T18:56:02.328Z,6.27
2022-08-27T18:58:30.491Z,6.67
2022-08-27T19:01:05.766Z,7.03
2022-08-27T19:03:40.951Z,6.93
2022-08-27T19:06:10.984Z,6.50
2022-08-27T19:08:42.490Z,6.73
2022-08-27T19:11:11.608Z,6.30
2022-08-27T19:13:39.579Z,6.70
2022-08-27T19:16:21.110Z,6.70
2022-08-27T19:18:51.178Z,6.20
2022-08-27T19:21:20.043Z,6.97
2022-08-27T19:23:51.805Z,6.73
2022-08-27T19:26:24.383Z,6.50
2022-08-27T19:28:55.728Z,6.53
2022-08-27T19:31:23.664Z,6.50
2022-08-27T19:36:40.113Z,7.00
2022-08-27T19:39:11.636Z,7.87
2022-08-27T19:41:43.027Z,8.20
2022-08-27T19:44:12.239Z,8.40
2022-08-27T19:46:43.201Z,8.30
2022-08-27T19:49:16.580Z,8.43
2022-08-27T19:51:45.168Z,8.53
2022-08-27T19:54:14.211Z,8.50
2022-08-27T19:56:43.412Z,8.57
2022-08-27T19:59:20.647Z,8.60
2022-08-27T20:01:54.859Z,8.40
2022-08-27T20:04:30.461Z,8.40
2022-08-27T20:07:02.126Z,8.60
2022-08-27T20:12:15.093Z,8.97
2022-08-27T20:14:47.106Z,9.40
2022-08-27T20:17:20.074Z,8.70
2022-08-27T20:19:50.642Z,8.20
2022-08-27T20:22:19.524Z,6.87
2022-08-27T20:24:48.303Z,6.70
2022-08-27T20:27:17.958Z,6.70
2022-08-27T20:29:47.701Z,6.10
2022-08-27T20:32:18.534Z,6.07
2022-08-27T20:34:47.594Z,7.63
2022-08-27T20:37:17.601Z,6.70
2022-08-27T20:39:46.468Z,6.90
2022-08-27T20:42:18.838Z,6.80
2022-08-27T20:44:48.138Z,8.10
2022-08-27T20:47:20.714Z,7.60
2022-08-27T20:49:51.082Z,6.87
2022-08-27T20:52:20.087Z,5.90
2022-08-27T20:54:48.016Z,5.80
2022-08-27T20:57:19.453Z,6.43
2022-08-27T21:00:08.189Z,5.83
2022-08-27T21:02:38.528Z,5.67
2022-08-27T21:05:11.615Z,5.50
2022-08-27T21:07:42.361Z,5.40
2022-08-27T21:10:13.238Z,5.30
2022-08-27T21:12:41.516Z,5.57
2022-08-27T21:15:13.190Z,5.67
2022-08-27T21:17:43.227Z,5.70
2022-08-27T21:20:11.899Z,5.20
2022-08-27T21:22:41.382Z,5.10
2022-08-27T21:35:15.662Z,6.07
2022-08-27T21:37:45.485Z,6.37
2022-08-27T21:40:14.145Z,5.63
2022-08-27T21:59:14.465Z,6.10
2022-08-27T22:01:43.325Z,6.80
2022-08-27T22:04:10.752Z,7.03
2022-08-27T22:06:41.848Z,6.60
2022-08-27T22:09:09.495Z,6.10
2022-08-27T22:11:40.544Z,6.40
2022-08-27T22:14:07.946Z,5.80
2022-08-27T22:16:42.158Z,5.50
2022-08-27T22:19:09.611Z,5.37
2022-08-27T22:21:41.727Z,5.40
2022-08-27T22:24:12.106Z,5.47
2022-08-27T22:26:41.305Z,5.40
2022-08-27T22:29:08.645Z,4.83
2022-08-27T22:31:39.974Z,4.87
2022-08-27T22:34:08.301Z,4.77
2022-08-27T22:36:43.626Z,5.07
2022-08-27T22:39:11.971Z,5.37
2022-08-27T22:41:46.141Z,4.70
2022-08-27T22:44:16.592Z,4.50
2022-08-27T22:46:45.391Z,4.60
2022-08-27T22:49:12.982Z,4.03
2022-08-27T22:51:42.598Z,4.10
2022-08-27T22:54:09.998Z,3.60
2022-08-27T22:56:37.676Z,3.40
2022-08-27T22:59:07.334Z,3.63
2022-08-27T23:01:36.362Z,3.60
2022-08-27T23:04:06.597Z,3.40
2022-08-27T23:06:34.454Z,3.77
2022-08-27T23:09:05.852Z,3.83
2022-08-27T23:11:34.120Z,4.37
2022-08-27T23:14:02.176Z,4.20
2022-08-27T23:16:31.851Z,4.37
2022-08-27T23:19:00.659Z,4.40
2022-08-27T23:21:30.218Z,4.20
2022-08-27T23:23:57.780Z,4.73
2022-08-27T23:26:44.395Z,4.70
2022-08-27T23:29:12.876Z,4.70
2022-08-27T23:31:43.329Z,4.73
2022-08-27T23:34:10.782Z,5.47
2022-08-27T23:36:40.681Z,4.67
2022-08-27T23:39:11.190Z,5.33
2022-08-27T23:41:41.260Z,5.47
2022-08-27T23:44:08.799Z,5.20
2022-08-27T23:46:37.581Z,5.40
2022-08-27T23:49:06.552Z,5.70
2022-08-27T23:51:33.994Z,4.93
2022-08-27T23:54:04.688Z,5.00
2022-08-27T23:56:32.446Z,5.40
2022-08-27T23:59:01.966Z,5.10
